29 minutes ago
Runway Headwind Crosswind Length
2 kt 12,795 ft
2 kt 8,996 ft
METAR DNMM 202100Z VRB02KT 8000 FEW008 24/23 Q1015 NOSIG

METAR definition | Embed

METAR Murtala Muhammed International Airport

Murtala Muhammed International Airport is a large airport in Lagos, Nigeria. The airport has 2 runways: 18R/36L (12,795 ft) and 18L/36R

This report was made for Murtala Muhammed International Airport on June 20, 2021 10:00 pm, local time.

Airport observations

There is little or no wind from a variable direction.

Visibility is 5 mi.

There are few clouds at an altitude of 800 ft. No ceiling has been observed.

The temperature and wind chill are 75 °F. The dew point is 73 °F, the relative humidity is 94%. The air pressure at sea level is 29.97 inHg (QNH).

Daylight period

Today the sun rises at 6:33 am and sets at 7:03 pm. This applies to Murtala Muhammed International Airport, the universal daylight period may be different. The difference between the local time and UTC is +1 hour. Daylight saving time is currently in progress.

Historical data

Donate

Will you help us to keep Metar-Taf.com running?
Your contribution helps further development of the site and to pay for the expenses.

No more ads

Are you donating $ 5 or more? Then we'll never show you ads again, as a token of our eternal gratitude!
Log in before you donate

Do you want the flying weather of Murtala Muhammed International Airport on your website? Read more   Free!